Time;durP1;ratioP1;P1;durP2;ratioP2;P2;SDS_P1;SDS_P2;PMS_P1;PMS_P2;Temp;Humidity;BMP_temperature;BMP_pressure;BME280_temperature;BME280_humidity;BME280_pressure;Samples;Min_cycle;Max_cycle;Signal;HPM_P1;HPM_P2
2022/05/10 00:01:31;;;;;;;0.20;0.20;;;13.90;99.90;;;;;;4930848;29;20055;-68
2022/05/10 00:03:58;;;;;;;0.00;0.00;;;13.90;99.90;;;;;;4929960;29;20172;-68
2022/05/10 00:06:35;;;;;;;0.00;0.00;;;13.90;99.90;;;;;;4930282;29;20179;-68
2022/05/10 00:09:01;;;;;;;0.00;0.00;;;13.90;99.90;;;;;;4930100;29;20106;-68
2022/05/10 00:11:26;;;;;;;0.00;0.00;;;13.90;99.90;;;;;;4930423;29;20466;-68
2022/05/10 00:13:52;;;;;;;0.00;0.00;;;13.90;99.90;;;;;;4913220;29;20056;-68
2022/05/10 00:16:21;;;;;;;0.00;0.00;;;13.90;99.90;;;;;;4930114;29;20495;-68
2022/05/10 00:18:47;;;;;;;0.32;0.32;;;13.90;99.90;;;;;;4912538;29;20051;-67
2022/05/10 00:21:17;;;;;;;0.10;0.10;;;14.00;99.90;;;;;;4930707;29;20079;-68
2022/05/10 00:23:43;;;;;;;0.00;0.00;;;13.90;99.90;;;;;;4930508;29;20051;-69
2022/05/10 00:26:08;;;;;;;0.00;0.00;;;14.10;99.90;;;;;;4929823;29;20040;-69
2022/05/10 00:28:34;;;;;;;0.00;0.00;;;14.00;99.90;;;;;;4912828;29;20053;-68
2022/05/10 00:30:59;;;;;;;0.00;0.00;;;14.20;99.90;;;;;;4930170;29;20518;-68
2022/05/10 00:33:27;;;;;;;0.00;0.00;;;14.10;99.90;;;;;;4928722;29;20535;-68
2022/05/10 00:35:54;;;;;;;0.00;0.00;;;14.20;99.90;;;;;;4913087;29;20058;-68
2022/05/10 00:38:31;;;;;;;0.00;0.00;;;14.20;99.90;;;;;;4929751;29;20048;-68
2022/05/10 00:41:05;;;;;;;0.00;0.00;;;14.20;99.90;;;;;;4929935;29;20139;-67
2022/05/10 00:43:36;;;;;;;0.00;0.00;;;14.20;99.90;;;;;;4929681;29;20091;-67
2022/05/10 00:46:20;;;;;;;0.00;0.00;;;14.40;99.90;;;;;;4936446;29;20054;-67
2022/05/10 00:48:58;;;;;;;0.00;0.00;;;14.30;99.90;;;;;;4913394;29;20446;-67
2022/05/10 00:51:39;;;;;;;0.00;0.00;;;14.20;99.90;;;;;;4929466;29;20059;-67
2022/05/10 00:54:14;;;;;;;0.00;0.00;;;14.30;99.90;;;;;;4929902;29;20850;-67
2022/05/10 00:56:45;;;;;;;;;;;14.30;99.90;;;;;;4930079;29;20052;-67
2022/05/10 00:59:26;;;;;;;0.00;0.00;;;14.30;99.90;;;;;;4930029;29;19923;-68
2022/05/10 01:01:57;;;;;;;0.00;0.00;;;14.30;99.90;;;;;;4913008;29;20047;-67
2022/05/10 01:04:32;;;;;;;0.00;0.00;;;14.30;99.90;;;;;;4928234;29;20138;-68
2022/05/10 01:07:20;;;;;;;0.00;0.00;;;14.40;99.90;;;;;;4929036;29;20100;-68
2022/05/10 01:09:51;;;;;;;0.00;0.00;;;14.40;99.90;;;;;;4929010;29;20607;-65
2022/05/10 01:12:38;;;;;;;0.00;0.00;;;14.40;99.90;;;;;;4929243;29;20102;-68
2022/05/10 01:15:10;;;;;;;0.00;0.00;;;14.30;99.90;;;;;;4928872;29;20058;-68
2022/05/10 01:17:36;;;;;;;0.00;0.00;;;14.30;99.90;;;;;;4928732;29;20051;-68
2022/05/10 01:20:04;;;;;;;0.00;0.00;;;14.30;99.90;;;;;;4929476;29;20046;-67
2022/05/10 01:22:36;;;;;;;0.00;0.00;;;14.30;99.90;;;;;;4928513;29;20059;-68
2022/05/10 01:25:15;;;;;;;0.00;0.00;;;14.20;99.90;;;;;;4929365;29;20499;-68
2022/05/10 01:28:06;;;;;;;0.00;0.00;;;14.20;99.90;;;;;;4929033;29;20118;-68
2022/05/10 01:30:32;;;;;;;0.00;0.00;;;14.20;99.90;;;;;;4929017;29;20052;-69
2022/05/10 01:36:15;;;;;;;0.00;0.00;;;14.20;99.90;;;;;;4929471;29;20047;-69
2022/05/10 01:39:14;;;;;;;0.00;0.00;;;14.10;99.90;;;;;;4929196;29;20044;-68
2022/05/10 01:41:56;;;;;;;0.00;0.00;;;14.10;99.90;;;;;;4928451;29;20418;-67
2022/05/10 01:44:41;;;;;;;0.00;0.00;;;14.20;99.90;;;;;;4928445;29;20134;-68
2022/05/10 01:47:25;;;;;;;;;;;14.20;99.90;;;;;;4938059;29;20109;-67
2022/05/10 01:50:04;;;;;;;0.00;0.00;;;14.10;99.90;;;;;;4948179;29;19922;-68
2022/05/10 01:52:50;;;;;;;0.00;0.00;;;14.10;99.90;;;;;;4947547;29;20043;-67
2022/05/10 01:55:31;;;;;;;0.00;0.00;;;14.10;99.90;;;;;;4930072;29;20406;-68
2022/05/10 01:58:03;;;;;;;0.00;0.00;;;14.10;99.90;;;;;;4947889;28;20055;-68
2022/05/10 02:00:30;;;;;;;0.00;0.00;;;14.10;99.90;;;;;;4947865;29;20439;-67
2022/05/10 02:03:13;;;;;;;0.00;0.00;;;14.10;99.90;;;;;;4946606;29;20062;-68
2022/05/10 02:06:06;;;;;;;0.00;0.00;;;14.10;99.90;;;;;;4947493;29;20055;-67
2022/05/10 02:08:44;;;;;;;0.00;0.00;;;14.10;99.90;;;;;;4947253;29;20042;-69
2022/05/10 02:11:13;;;;;;;0.00;0.00;;;14.10;99.90;;;;;;4947092;29;20059;-69
2022/05/10 02:13:49;;;;;;;0.00;0.00;;;14.10;99.90;;;;;;4947098;29;20043;-68
2022/05/10 02:16:25;;;;;;;0.00;0.00;;;14.10;99.90;;;;;;4947747;29;20134;-68
2022/05/10 02:18:59;;;;;;;0.38;0.20;;;14.10;99.90;;;;;;4945605;28;20058;-69
2022/05/10 02:21:30;;;;;;;0.08;0.00;;;14.10;99.90;;;;;;4946944;29;20127;-69
2022/05/10 02:24:12;;;;;;;0.20;0.10;;;14.10;99.90;;;;;;4946544;29;20120;-68
2022/05/10 02:26:44;;;;;;;0.00;0.00;;;14.10;99.90;;;;;;4947203;29;20078;-68
2022/05/10 02:29:23;;;;;;;0.00;0.00;;;14.10;99.90;;;;;;4947248;29;20491;-69
2022/05/10 02:34:43;;;;;;;0.15;0.15;;;14.10;99.90;;;;;;4946321;29;20384;-69
2022/05/10 02:37:09;;;;;;;0.00;0.00;;;14.10;99.90;;;;;;4947266;29;20106;-68
2022/05/10 02:39:35;;;;;;;0.10;0.10;;;14.10;99.90;;;;;;4947219;28;20039;-67
2022/05/10 02:42:02;;;;;;;0.00;0.00;;;14.10;99.90;;;;;;4946551;29;20047;-68
2022/05/10 02:44:28;;;;;;;0.10;0.10;;;14.10;99.90;;;;;;4946239;29;20047;-68
2022/05/10 02:46:55;;;;;;;0.00;0.00;;;14.20;99.90;;;;;;4938546;29;20562;-68
2022/05/10 02:49:21;;;;;;;0.00;0.00;;;14.20;99.90;;;;;;4926878;29;20055;-69
2022/05/10 02:51:47;;;;;;;0.00;0.00;;;14.10;99.90;;;;;;4927191;29;20114;-73
2022/05/10 02:54:13;;;;;;;0.10;0.10;;;14.20;99.90;;;;;;4910703;29;20079;-68
2022/05/10 02:56:40;;;;;;;0.00;0.00;;;14.20;99.90;;;;;;4927365;29;20062;-68
2022/05/10 02:59:33;;;;;;;0.00;0.00;;;14.20;99.90;;;;;;4927229;29;20374;-68
2022/05/10 03:02:04;;;;;;;0.00;0.00;;;14.20;99.90;;;;;;4924160;29;20482;-68
2022/05/10 03:04:36;;;;;;;1.08;0.35;;;14.20;99.90;;;;;;4926136;29;20147;-68
2022/05/10 03:07:04;;;;;;;0.10;0.10;;;14.20;99.90;;;;;;4910388;29;20543;-68
2022/05/10 03:09:29;;;;;;;0.10;0.10;;;14.20;99.90;;;;;;4909771;29;20063;-68
2022/05/10 03:11:55;;;;;;;3.55;0.45;;;14.20;99.90;;;;;;4926707;29;20048;-69
2022/05/10 03:14:21;;;;;;;0.28;0.10;;;14.30;99.90;;;;;;4927239;29;20051;-68
2022/05/10 03:16:46;;;;;;;0.08;0.03;;;14.20;99.90;;;;;;4927289;29;20122;-68
2022/05/10 03:19:12;;;;;;;0.08;0.05;;;14.30;99.90;;;;;;4909124;29;20399;-68
2022/05/10 03:21:40;;;;;;;0.60;0.17;;;14.20;99.90;;;;;;4925686;29;20095;-68
2022/05/10 03:24:06;;;;;;;0.00;0.00;;;14.20;99.90;;;;;;4926942;29;20052;-68
2022/05/10 03:26:32;;;;;;;0.20;0.10;;;14.20;99.90;;;;;;4926770;29;20633;-68
2022/05/10 03:28:58;;;;;;;0.40;0.28;;;14.20;99.90;;;;;;4926658;29;20082;-68
2022/05/10 03:31:25;;;;;;;0.00;0.00;;;14.30;99.90;;;;;;4926457;29;20067;-68
2022/05/10 03:36:38;;;;;;;;;;;14.10;99.90;;;;;;4927113;29;20494;-68
2022/05/10 03:39:04;;;;;;;0.15;0.13;;;14.20;99.90;;;;;;4926927;29;20357;-68
2022/05/10 03:41:29;;;;;;;0.10;0.10;;;14.10;99.90;;;;;;4926712;29;20052;-69
2022/05/10 03:43:55;;;;;;;0.00;0.00;;;14.10;99.90;;;;;;4927093;29;20058;-68
2022/05/10 03:46:21;;;;;;;0.00;0.00;;;14.10;99.90;;;;;;4935647;29;20126;-68
2022/05/10 03:48:49;;;;;;;0.00;0.00;;;14.10;99.90;;;;;;4927583;29;20139;-68
2022/05/10 03:51:14;;;;;;;0.40;0.20;;;14.10;99.90;;;;;;4926663;29;20051;-68
2022/05/10 03:53:40;;;;;;;0.00;0.00;;;14.10;99.90;;;;;;4909288;29;20073;-68
2022/05/10 03:56:06;;;;;;;0.10;0.05;;;14.00;99.90;;;;;;4926890;29;20127;-69
2022/05/10 03:58:31;;;;;;;0.00;0.00;;;14.10;99.90;;;;;;4908641;29;20051;-68
2022/05/10 04:00:57;;;;;;;0.00;0.00;;;14.00;99.90;;;;;;4926672;29;20040;-68
2022/05/10 04:03:22;;;;;;;0.00;0.00;;;14.00;99.90;;;;;;4925589;29;20047;-69
2022/05/10 04:05:48;;;;;;;0.00;0.00;;;14.00;99.90;;;;;;4926923;29;20048;-68
2022/05/10 04:08:14;;;;;;;0.10;0.10;;;14.00;99.90;;;;;;4926323;29;20126;-68
2022/05/10 04:10:40;;;;;;;0.00;0.00;;;13.90;99.90;;;;;;4926051;29;20063;-68
2022/05/10 04:13:07;;;;;;;0.00;0.00;;;13.90;99.90;;;;;;4926421;29;20260;-68
2022/05/10 04:15:32;;;;;;;0.00;0.00;;;13.90;99.90;;;;;;4925945;29;20093;-69
2022/05/10 04:17:58;;;;;;;0.00;0.00;;;13.80;99.90;;;;;;4925832;29;20048;-68
2022/05/10 04:20:24;;;;;;;0.10;0.10;;;13.80;99.90;;;;;;4926801;29;20086;-68
2022/05/10 04:22:49;;;;;;;0.05;0.05;;;13.70;99.90;;;;;;4926544;29;20039;-68
2022/05/10 04:25:23;;;;;;;0.00;0.00;;;13.80;99.90;;;;;;4926117;29;20043;-68
2022/05/10 04:27:50;;;;;;;0.05;0.05;;;13.80;99.90;;;;;;4926568;29;20130;-68
2022/05/10 04:30:17;;;;;;;0.00;0.00;;;13.80;99.90;;;;;;4926217;29;20411;-69
2022/05/10 04:32:42;;;;;;;0.00;0.00;;;13.80;99.90;;;;;;4925684;29;20047;-69
2022/05/10 04:35:09;;;;;;;0.15;0.10;;;13.80;99.90;;;;;;4926231;29;20047;-68
2022/05/10 04:37:35;;;;;;;0.00;0.00;;;13.80;99.90;;;;;;4926396;29;20168;-68
2022/05/10 04:42:45;;;;;;;0.00;0.00;;;13.80;99.90;;;;;;4927874;29;20048;-68
2022/05/10 04:45:12;;;;;;;0.00;0.00;;;13.80;99.90;;;;;;4929664;29;20172;-68
2022/05/10 04:47:38;;;;;;;0.17;0.17;;;13.90;99.90;;;;;;4936798;29;20083;-69
2022/05/10 04:50:04;;;;;;;0.00;0.00;;;13.90;99.90;;;;;;4930014;29;20092;-68
2022/05/10 04:52:30;;;;;;;0.05;0.00;;;14.00;99.90;;;;;;4929726;29;20114;-68
2022/05/10 04:54:55;;;;;;;0.10;0.10;;;14.00;99.90;;;;;;4929335;29;20730;-68
2022/05/10 04:57:21;;;;;;;0.20;0.20;;;14.10;99.90;;;;;;4929556;29;20048;-68
2022/05/10 04:59:47;;;;;;;0.40;0.15;;;14.20;99.90;;;;;;4929544;29;20539;-68
2022/05/10 05:02:13;;;;;;;0.08;0.03;;;14.10;99.90;;;;;;4929104;29;20035;-68
2022/05/10 05:04:39;;;;;;;0.10;0.10;;;14.20;99.90;;;;;;4929219;29;20055;-68
2022/05/10 05:07:05;;;;;;;0.00;0.00;;;14.20;99.90;;;;;;4929671;29;20040;-69
2022/05/10 05:09:31;;;;;;;0.20;0.20;;;14.20;99.90;;;;;;4929019;29;20115;-68
2022/05/10 05:11:57;;;;;;;0.22;0.20;;;14.20;99.90;;;;;;4928873;29;20134;-68
2022/05/10 05:14:23;;;;;;;0.10;0.10;;;14.60;99.90;;;;;;4912206;29;20134;-69
2022/05/10 05:16:48;;;;;;;0.00;0.00;;;14.30;99.90;;;;;;4928705;29;20050;-68
2022/05/10 05:19:14;;;;;;;0.00;0.00;;;14.40;99.90;;;;;;4929485;29;20071;-68
2022/05/10 05:21:40;;;;;;;0.10;0.10;;;14.40;99.90;;;;;;4929438;29;20571;-68
2022/05/10 05:24:06;;;;;;;0.13;0.10;;;14.40;99.90;;;;;;4896192;29;20091;-68
2022/05/10 05:26:31;;;;;;;0.25;0.20;;;14.40;99.90;;;;;;4912191;29;20079;-68
2022/05/10 05:28:57;;;;;;;0.10;0.10;;;14.50;99.90;;;;;;4928907;29;20410;-68
2022/05/10 05:31:24;;;;;;;0.00;0.00;;;14.50;99.90;;;;;;4928897;29;20047;-69
2022/05/10 05:33:50;;;;;;;0.22;0.22;;;14.50;99.90;;;;;;4928428;29;20099;-69
2022/05/10 05:36:16;;;;;;;0.03;0.03;;;14.60;99.90;;;;;;4911185;29;20052;-68
2022/05/10 05:38:42;;;;;;;0.47;0.30;;;14.70;99.90;;;;;;4912522;29;20055;-68
2022/05/10 05:41:07;;;;;;;7.10;0.68;;;14.70;99.90;;;;;;4929128;29;20071;-68
2022/05/10 05:43:34;;;;;;;0.20;0.17;;;14.70;99.90;;;;;;4928428;29;20087;-68
2022/05/10 05:46:01;;;;;;;0.00;0.00;;;14.70;99.90;;;;;;4934680;29;20091;-68
2022/05/10 05:48:27;;;;;;;0.22;0.20;;;14.70;99.90;;;;;;4932142;29;20051;-68
2022/05/10 05:50:53;;;;;;;0.00;0.00;;;14.80;99.90;;;;;;4911951;29;20078;-68
2022/05/10 05:53:18;;;;;;;0.10;0.10;;;14.80;99.90;;;;;;4928035;29;20040;-68
2022/05/10 05:55:47;;;;;;;0.10;0.10;;;14.80;99.90;;;;;;4928974;29;20134;-68
2022/05/10 05:58:13;;;;;;;0.03;0.03;;;15.00;99.90;;;;;;4928987;29;20126;-69
2022/05/10 06:00:39;;;;;;;0.10;0.10;;;14.90;99.90;;;;;;4910888;29;20131;-69
2022/05/10 06:03:05;;;;;;;0.00;0.00;;;14.90;99.90;;;;;;4928120;29;20051;-68
2022/05/10 06:05:31;;;;;;;0.65;0.50;;;15.00;99.90;;;;;;4928252;29;20048;-68
2022/05/10 06:07:58;;;;;;;0.22;0.10;;;15.00;99.90;;;;;;4928410;29;20185;-68
2022/05/10 06:10:24;;;;;;;0.00;0.00;;;15.10;99.90;;;;;;4927536;29;20055;-69
2022/05/10 06:12:49;;;;;;;0.00;0.00;;;15.10;99.90;;;;;;4928146;29;20706;-67
2022/05/10 06:15:18;;;;;;;0.20;0.20;;;15.20;99.90;;;;;;4928428;29;20122;-65
2022/05/10 06:17:46;;;;;;;0.65;0.63;;;15.20;99.90;;;;;;4927705;29;20040;-69
2022/05/10 06:20:15;;;;;;;0.30;0.20;;;15.20;99.90;;;;;;4928920;29;20043;-68
2022/05/10 06:22:45;;;;;;;0.15;0.15;;;15.30;99.90;;;;;;4928683;29;20431;-68
2022/05/10 06:25:13;;;;;;;0.00;0.00;;;15.30;99.90;;;;;;4927901;29;20090;-69
2022/05/10 06:27:38;;;;;;;0.00;0.00;;;15.40;99.90;;;;;;4927564;29;20427;-69
2022/05/10 06:30:05;;;;;;;0.10;0.10;;;15.60;99.90;;;;;;4928049;29;20044;-65
2022/05/10 06:32:31;;;;;;;0.00;0.00;;;15.60;99.90;;;;;;4927137;29;20071;-67
2022/05/10 06:34:59;;;;;;;0.10;0.10;;;15.60;99.90;;;;;;4910790;29;20106;-69
2022/05/10 06:40:13;;;;;;;0.10;0.10;;;15.80;99.90;;;;;;4927390;29;20420;-71
2022/05/10 06:42:39;;;;;;;0.73;0.28;;;15.90;99.90;;;;;;4927615;29;20048;-69
2022/05/10 06:45:09;;;;;;;0.15;0.15;;;16.00;99.90;;;;;;4930180;29;20039;-68
2022/05/10 06:47:37;;;;;;;0.05;0.05;;;16.10;99.90;;;;;;4934837;29;20106;-68
2022/05/10 06:50:04;;;;;;;0.57;0.28;;;16.30;99.90;;;;;;4927741;29;20159;-68
2022/05/10 06:52:30;;;;;;;0.35;0.15;;;16.50;99.90;;;;;;4927251;29;20492;-67
2022/05/10 06:54:57;;;;;;;5.00;0.63;;;16.90;99.90;;;;;;4927107;29;20058;-67
2022/05/10 06:57:22;;;;;;;0.10;0.10;;;17.30;99.90;;;;;;4910074;29;20475;-67
2022/05/10 06:59:48;;;;;;;0.45;0.25;;;17.60;99.90;;;;;;4927592;29;20051;-66
2022/05/10 07:02:13;;;;;;;0.10;0.10;;;17.90;99.90;;;;;;4927208;29;20491;-67
2022/05/10 07:04:39;;;;;;;0.10;0.08;;;18.00;99.90;;;;;;4926580;29;20682;-67
2022/05/10 07:07:05;;;;;;;0.05;0.05;;;18.30;99.90;;;;;;4910068;29;20363;-66
2022/05/10 07:09:30;;;;;;;0.35;0.32;;;18.70;99.90;;;;;;4927013;29;20090;-67
2022/05/10 07:11:57;;;;;;;0.30;0.20;;;18.90;99.90;;;;;;4893993;29;20103;-67
2022/05/10 07:14:22;;;;;;;0.17;0.17;;;18.90;99.90;;;;;;4927205;29;20054;-67
2022/05/10 07:16:48;;;;;;;0.50;0.50;;;18.80;99.90;;;;;;4926605;29;20039;-67
2022/05/10 07:19:14;;;;;;;0.30;0.30;;;18.60;99.90;;;;;;4910617;29;20062;-68
2022/05/10 07:21:39;;;;;;;0.13;0.13;;;18.60;99.90;;;;;;4926484;29;20043;-68
2022/05/10 07:24:05;;;;;;;0.45;0.30;;;18.70;99.90;;;;;;4926913;29;20060;-66
2022/05/10 07:26:31;;;;;;;0.15;0.13;;;18.80;99.90;;;;;;4926679;29;20073;-69
2022/05/10 07:28:57;;;;;;;0.10;0.10;;;18.90;99.90;;;;;;4926548;29;20107;-69
2022/05/10 07:31:22;;;;;;;0.30;0.30;;;19.00;99.90;;;;;;4926881;29;20115;-69
2022/05/10 07:33:48;;;;;;;0.43;0.20;;;19.00;99.90;;;;;;4926327;29;20123;-68
2022/05/10 07:36:28;;;;;;;0.20;0.20;;;19.20;99.90;;;;;;4927341;29;20052;-67
2022/05/10 07:38:54;;;;;;;0.00;0.00;;;19.40;99.90;;;;;;4926858;29;20044;-68
2022/05/10 07:41:23;;;;;;;0.38;0.28;;;19.50;99.90;;;;;;4926337;29;20138;-67
2022/05/10 07:43:50;;;;;;;0.20;0.20;;;19.70;99.90;;;;;;4926045;29;20046;-67
2022/05/10 07:46:17;;;;;;;0.00;0.00;;;19.90;99.90;;;;;;4917809;29;20212;-67
2022/05/10 07:48:43;;;;;;;0.32;0.28;;;20.10;99.90;;;;;;4911235;29;20137;-70
2022/05/10 07:51:09;;;;;;;0.65;0.10;;;20.40;99.90;;;;;;4926818;29;20044;-61
2022/05/10 07:53:36;;;;;;;0.10;0.10;;;20.50;99.90;;;;;;4909157;29;20110;-67
2022/05/10 07:56:02;;;;;;;0.30;0.30;;;20.60;99.90;;;;;;4926864;29;20130;-66
2022/05/10 07:58:29;;;;;;;0.10;0.10;;;20.80;99.90;;;;;;4909319;29;20055;-66
2022/05/10 08:00:55;;;;;;;0.38;0.30;;;20.70;99.90;;;;;;4912872;28;20135;-66
2022/05/10 08:03:23;;;;;;;0.55;0.43;;;20.80;99.90;;;;;;4943555;28;20039;-66
2022/05/10 08:05:50;;;;;;;0.17;0.17;;;20.90;99.90;;;;;;4945364;29;20129;-65
2022/05/10 08:08:19;;;;;;;3.20;1.00;;;21.00;99.90;;;;;;4944526;29;20449;-65
2022/05/10 08:10:47;;;;;;;0.10;0.10;;;20.90;99.90;;;;;;4945322;29;20143;-64
2022/05/10 08:13:15;;;;;;;0.00;0.00;;;20.90;99.90;;;;;;4945553;29;20043;-64
2022/05/10 08:15:41;;;;;;;0.32;0.28;;;21.10;99.90;;;;;;4945390;29;20116;-65
2022/05/10 08:18:08;;;;;;;0.28;0.20;;;21.40;99.90;;;;;;4928944;29;20569;-65
2022/05/10 08:20:34;;;;;;;0.20;0.20;;;21.40;99.90;;;;;;4949026;29;20051;-65
2022/05/10 08:23:00;;;;;;;0.22;0.10;;;21.50;99.90;;;;;;4949283;28;20043;-65
2022/05/10 08:25:26;;;;;;;0.30;0.17;;;21.60;99.90;;;;;;4948567;29;20521;-65
2022/05/10 08:27:52;;;;;;;0.10;0.03;;;21.60;99.90;;;;;;4948801;28;20383;-64
2022/05/10 08:30:17;;;;;;;0.00;0.00;;;21.70;99.90;;;;;;4948875;28;20131;-65
2022/05/10 08:32:43;;;;;;;0.22;0.22;;;21.80;99.90;;;;;;4948121;29;20043;-65
2022/05/10 08:35:10;;;;;;;1.25;0.55;;;21.80;99.90;;;;;;4948984;29;20074;-65
2022/05/10 08:37:37;;;;;;;0.30;0.10;;;21.80;99.90;;;;;;4948811;29;20050;-65
2022/05/10 08:40:27;;;;;;;0.15;0.15;;;22.00;99.90;;;;;;4948790;29;20491;-65
2022/05/10 08:42:57;;;;;;;0.00;0.00;;;22.00;99.90;;;;;;4931979;29;20837;-65
2022/05/10 08:45:24;;;;;;;0.17;0.15;;;21.90;99.90;;;;;;4943001;29;20459;-65
2022/05/10 08:47:51;;;;;;;0.10;0.10;;;22.00;99.90;;;;;;4936568;29;20047;-65
2022/05/10 08:50:17;;;;;;;0.10;0.10;;;22.00;99.90;;;;;;4912207;29;20467;-65
2022/05/10 08:52:47;;;;;;;0.00;0.00;;;22.10;99.90;;;;;;4912606;29;20138;-65
2022/05/10 08:55:21;;;;;;;0.03;0.03;;;22.20;99.90;;;;;;4944065;29;20434;-68
2022/05/10 08:57:53;;;;;;;0.10;0.10;;;22.30;99.90;;;;;;4948503;29;20090;-65
2022/05/10 09:00:51;;;;;;;1.65;0.40;;;22.40;99.90;;;;;;4948149;28;20053;-65
2022/05/10 09:03:41;;;;;;;0.40;0.30;;;22.40;99.90;;;;;;4946827;29;20055;-65
2022/05/10 09:06:51;;;;;;;0.17;0.17;;;22.20;99.90;;;;;;4948485;28;20203;-65
2022/05/10 09:09:27;;;;;;;1.38;1.02;;;22.20;99.90;;;;;;4947695;29;20109;-65
2022/05/10 09:12:19;;;;;;;0.40;0.30;;;22.10;99.90;;;;;;4948255;28;20059;-65
2022/05/10 09:14:54;;;;;;;0.35;0.20;;;22.20;99.90;;;;;;4948464;28;20046;-64
2022/05/10 09:17:22;;;;;;;0.65;0.30;;;22.30;99.90;;;;;;4947063;28;20134;-65
2022/05/10 09:19:50;;;;;;;0.00;0.00;;;22.30;99.90;;;;;;4947890;29;20062;-65
2022/05/10 09:22:25;;;;;;;0.90;0.40;;;22.30;99.90;;;;;;4947964;29;20050;-65
2022/05/10 09:24:56;;;;;;;0.05;0.05;;;22.40;99.90;;;;;;4947720;28;20502;-65
2022/05/10 09:27:29;;;;;;;0.30;0.30;;;22.40;99.90;;;;;;4947783;29;20039;-64
2022/05/10 09:29:55;;;;;;;0.68;0.40;;;22.30;99.90;;;;;;4947711;28;20039;-64
2022/05/10 09:35:23;;;;;;;0.40;0.22;;;22.40;99.90;;;;;;4947402;28;20055;-65
2022/05/10 09:37:56;;;;;;;1.05;0.40;;;22.20;99.90;;;;;;4945052;29;20059;-65
2022/05/10 09:40:34;;;;;;;0.10;0.10;;;22.20;99.90;;;;;;4947194;28;20055;-65
2022/05/10 09:43:22;;;;;;;0.22;0.10;;;22.10;99.90;;;;;;4947601;28;20049;-64
2022/05/10 09:46:10;;;;;;;0.47;0.47;;;22.10;99.90;;;;;;4923902;29;20095;-65
2022/05/10 09:48:40;;;;;;;0.00;0.00;;;22.10;99.90;;;;;;4930288;29;20110;-65
2022/05/10 09:51:40;;;;;;;0.93;0.65;;;22.00;99.90;;;;;;4927898;29;20043;-65
2022/05/10 09:54:23;;;;;;;0.00;0.00;;;22.00;99.90;;;;;;4870644;29;20064;-65
2022/05/10 09:56:53;;;;;;;0.00;0.00;;;21.90;99.90;;;;;;4944732;29;20372;-67
2022/05/10 09:59:18;;;;;;;0.38;0.28;;;21.90;99.90;;;;;;4946894;29;20151;-65
2022/05/10 10:01:46;;;;;;;0.10;0.10;;;21.90;99.90;;;;;;4929242;29;20142;-65
2022/05/10 10:04:17;;;;;;;0.10;0.10;;;22.00;99.90;;;;;;4929811;29;20054;-65
2022/05/10 10:06:43;;;;;;;0.45;0.43;;;22.10;99.90;;;;;;4929937;29;20047;-65
2022/05/10 10:09:08;;;;;;;0.10;0.10;;;22.10;99.90;;;;;;4946774;29;20078;-65
2022/05/10 10:11:39;;;;;;;0.00;0.00;;;22.10;99.90;;;;;;4946496;29;20170;-65
2022/05/10 10:14:10;;;;;;;1.75;0.52;;;22.40;99.90;;;;;;4946388;29;20043;-65
2022/05/10 10:16:53;;;;;;;0.30;0.20;;;22.70;99.90;;;;;;4945888;29;20648;-65
2022/05/10 10:19:22;;;;;;;0.10;0.10;;;22.60;99.90;;;;;;4957259;28;20051;-66
2022/05/10 10:22:08;;;;;;;0.32;0.32;;;22.60;99.90;;;;;;4965890;28;20225;-65
2022/05/10 10:24:56;;;;;;;0.22;0.10;;;22.50;99.90;;;;;;4965462;28;20126;-64
2022/05/10 10:27:42;;;;;;;1.75;0.90;;;22.40;99.90;;;;;;4955511;28;20467;-65
2022/05/10 10:30:23;;;;;;;1.27;0.25;;;22.40;99.90;;;;;;4946101;29;20452;-65
2022/05/10 10:33:00;;;;;;;0.10;0.10;;;22.40;99.90;;;;;;4928450;29;20057;-66
2022/05/10 10:35:31;;;;;;;0.28;0.25;;;22.40;99.90;;;;;;4928483;29;20087;-65
2022/05/10 10:38:17;;;;;;;0.22;0.22;;;22.40;99.90;;;;;;4946433;29;20043;-65
2022/05/10 10:41:04;;;;;;;0.00;0.00;;;22.40;99.90;;;;;;4945348;28;20069;-65
2022/05/10 10:43:52;;;;;;;0.20;0.20;;;22.40;99.90;;;;;;4928662;29;20047;-64
2022/05/10 10:46:37;;;;;;;0.25;0.10;;;22.40;99.90;;;;;;4938954;29;20047;-65
2022/05/10 10:49:33;;;;;;;0.75;0.75;;;22.50;99.90;;;;;;4910073;29;20063;-64
2022/05/10 10:51:59;;;;;;;1.85;0.63;;;22.70;99.90;;;;;;4926888;29;20606;-65
2022/05/10 10:54:29;;;;;;;0.10;0.10;;;22.70;99.90;;;;;;4926942;29;20082;-63
2022/05/10 10:57:31;;;;;;;0.63;0.28;;;23.00;99.90;;;;;;4927246;29;20051;-64
2022/05/10 11:00:20;;;;;;;0.13;0.08;;;23.20;99.90;;;;;;4926899;29;20079;-64
2022/05/10 11:03:14;;;;;;;0.10;0.10;;;23.30;99.90;;;;;;4926236;29;20498;-64
2022/05/10 11:06:13;;;;;;;0.40;0.27;;;23.50;99.90;;;;;;4927011;29;20661;-67
2022/05/10 11:09:09;;;;;;;0.10;0.10;;;23.60;99.90;;;;;;4926868;29;20525;-64
2022/05/10 11:11:44;;;;;;;0.13;0.13;;;23.40;99.90;;;;;;4926405;29;20497;-64
2022/05/10 11:14:28;;;;;;;0.28;0.20;;;23.40;99.90;;;;;;4926844;29;20046;-64
2022/05/10 11:17:09;;;;;;;0.30;0.30;;;23.40;99.90;;;;;;4926066;29;20047;-63
2022/05/10 11:19:57;;;;;;;0.10;0.10;;;23.40;99.90;;;;;;4926769;29;20055;-64
2022/05/10 11:22:40;;;;;;;0.32;0.10;;;23.40;99.90;;;;;;4909121;29;20051;-63
2022/05/10 11:25:33;;;;;;;0.20;0.20;;;23.30;99.90;;;;;;4926874;29;20047;-64
2022/05/10 11:28:19;;;;;;;0.10;0.10;;;23.20;99.90;;;;;;4926984;29;20315;-64
2022/05/10 11:31:07;;;;;;;0.17;0.13;;;23.20;99.90;;;;;;4909457;29;20059;-64
2022/05/10 11:33:55;;;;;;;0.20;0.10;;;23.10;99.90;;;;;;4926483;29;20098;-64
2022/05/10 11:36:27;;;;;;;0.82;0.57;;;23.10;99.90;;;;;;4926422;29;20062;-64
2022/05/10 11:39:37;;;;;;;0.17;0.17;;;23.10;99.90;;;;;;4926662;29;20136;-64
2022/05/10 11:42:45;;;;;;;0.10;0.10;;;22.90;99.90;;;;;;4867240;29;20056;-66
2022/05/10 11:45:13;;;;;;;0.95;0.73;;;22.80;99.90;;;;;;4924090;29;20085;-64
2022/05/10 11:48:08;;;;;;;1.02;0.40;;;22.70;99.90;;;;;;4933707;29;20052;-65
2022/05/10 11:53:48;;;;;;;0.43;0.20;;;22.70;99.90;;;;;;4926263;29;20052;-64
2022/05/10 11:56:16;;;;;;;0.40;0.17;;;22.60;99.90;;;;;;4926286;29;20075;-65
2022/05/10 11:58:42;;;;;;;0.38;0.32;;;22.70;99.90;;;;;;4909717;29;20051;-64
2022/05/10 12:01:14;;;;;;;1.45;1.30;;;22.60;99.90;;;;;;4908479;29;20488;-65
2022/05/10 12:03:39;;;;;;;0.10;0.10;;;22.60;99.90;;;;;;4892652;29;20039;-65
2022/05/10 12:06:23;;;;;;;0.15;0.10;;;22.70;99.90;;;;;;4926271;29;20467;-64
2022/05/10 12:08:57;;;;;;;0.50;0.32;;;22.70;99.90;;;;;;4925735;29;20535;-64
2022/05/10 12:11:32;;;;;;;0.10;0.10;;;22.80;99.90;;;;;;4925770;29;20142;-64
2022/05/10 12:22:50;;;;;;;0.35;0.10;;;23.40;99.90;;;;;;4926055;29;20063;-63
2022/05/10 12:26:02;;;;;;;0.10;0.10;;;23.70;99.90;;;;;;4908942;29;20074;-64
2022/05/10 12:28:48;;;;;;;0.43;0.20;;;23.70;99.90;;;;;;4922238;29;20063;-64
2022/05/10 12:31:34;;;;;;;0.13;0.10;;;23.60;99.90;;;;;;4925080;29;20056;-63
2022/05/10 12:34:12;;;;;;;0.30;0.20;;;23.70;99.90;;;;;;4925800;29;20123;-64
2022/05/10 12:36:44;;;;;;;0.10;0.10;;;23.70;99.90;;;;;;4908203;29;20054;-64
2022/05/10 12:39:24;;;;;;;0.45;0.45;;;23.70;99.90;;;;;;4925915;29;20059;-65
2022/05/10 12:42:20;;;;;;;0.32;0.32;;;23.70;99.90;;;;;;4925390;29;20071;-64
2022/05/10 12:44:55;;;;;;;4.25;0.55;;;23.60;99.90;;;;;;4924954;29;20070;-63
2022/05/10 12:47:42;;;;;;;0.45;0.45;;;23.80;99.90;;;;;;4933224;29;20051;-64
2022/05/10 12:50:10;;;;;;;0.47;0.40;;;23.70;99.90;;;;;;4926052;29;20415;-65
2022/05/10 12:52:43;;;;;;;1.45;0.85;;;23.60;99.90;;;;;;4925776;29;20043;-64
2022/05/10 12:55:16;;;;;;;0.10;0.10;;;23.50;99.90;;;;;;4926031;29;20055;-64
2022/05/10 12:57:53;;;;;;;0.00;0.00;;;23.60;99.90;;;;;;4926514;29;20048;-65
2022/05/10 13:00:26;;;;;;;0.13;0.10;;;23.80;99.90;;;;;;4908460;29;20114;-65
2022/05/10 13:03:07;;;;;;;0.52;0.40;;;23.80;99.90;;;;;;4925120;29;20055;-65
2022/05/10 13:05:50;;;;;;;0.25;0.20;;;23.80;99.90;;;;;;4929141;29;20083;-66
2022/05/10 13:08:30;;;;;;;0.20;0.20;;;24.00;99.90;;;;;;4928956;29;20107;-64
2022/05/10 13:10:58;;;;;;;0.85;0.52;;;24.20;99.90;;;;;;4929306;29;20451;-65
2022/05/10 13:13:32;;;;;;;0.05;0.05;;;23.80;99.90;;;;;;4928758;29;20240;-64
2022/05/10 13:15:58;;;;;;;0.17;0.17;;;23.70;99.90;;;;;;4928477;29;20048;-64
2022/05/10 13:18:26;;;;;;;0.43;0.20;;;23.60;99.90;;;;;;4911843;29;20561;-64
2022/05/10 13:20:56;;;;;;;0.35;0.35;;;23.60;99.90;;;;;;4928997;29;20442;-65
2022/05/10 13:23:30;;;;;;;0.65;0.40;;;23.30;99.90;;;;;;4928510;29;20058;-64
2022/05/10 13:26:05;;;;;;;1.05;0.38;;;23.20;99.90;;;;;;4928749;29;20099;-63
2022/05/10 13:28:30;;;;;;;0.73;0.40;;;23.10;99.90;;;;;;4928716;29;20177;-64
2022/05/10 13:30:59;;;;;;;0.10;0.10;;;23.10;99.90;;;;;;4926751;29;20039;-64
2022/05/10 13:33:29;;;;;;;0.28;0.10;;;23.10;99.90;;;;;;4928564;29;20055;-63
2022/05/10 13:36:04;;;;;;;0.00;0.00;;;23.10;99.90;;;;;;4928884;29;20837;-65
2022/05/10 13:38:50;;;;;;;0.30;0.20;;;23.00;99.90;;;;;;4911401;29;20059;-65
2022/05/10 13:41:30;;;;;;;0.17;0.10;;;23.00;99.90;;;;;;4928409;29;20164;-64
2022/05/10 13:44:00;;;;;;;0.10;0.10;;;23.00;99.90;;;;;;4928411;29;20099;-65